Time;durP1;ratioP1;P1;durP2;ratioP2;P2;SDS_P1;SDS_P2;PMS_P1;PMS_P2;Temp;Humidity;BMP_temperature;BMP_pressure;BME280_temperature;BME280_humidity;BME280_pressure;Samples;Min_cycle;Max_cycle;Signal;HPM_P1;HPM_P2
2023/06/16 00:00:20;;;;;;;6.40;3.93;;;;;;;19.61;100.00;98623.44;5073573;28;20228;-79
2023/06/16 00:02:48;;;;;;;8.00;3.90;;;;;;;19.63;100.00;98629.25;5072748;28;20244;-79
2023/06/16 00:05:15;;;;;;;6.67;4.23;;;;;;;19.63;100.00;98625.84;5073281;28;20611;-79
2023/06/16 00:07:42;;;;;;;6.43;4.00;;;;;;;19.60;100.00;98624.41;5072571;28;20244;-79
2023/06/16 00:10:11;;;;;;;9.20;4.10;;;;;;;19.60;100.00;98623.59;5072877;28;20234;-79
2023/06/16 00:12:40;;;;;;;7.00;4.17;;;;;;;19.58;100.00;98617.81;5072988;28;20202;-79
2023/06/16 00:15:10;;;;;;;6.23;3.90;;;;;;;19.58;100.00;98621.19;5072894;28;20228;-79
2023/06/16 00:17:44;;;;;;;8.33;4.17;;;;;;;19.57;100.00;98616.97;5072880;28;20197;-79
2023/06/16 00:20:11;;;;;;;9.23;3.97;;;;;;;19.58;100.00;98621.19;5073398;28;20236;-79
2023/06/16 00:22:39;;;;;;;7.07;4.33;;;;;;;19.57;100.00;98614.38;5073388;28;20192;-79
2023/06/16 00:25:06;;;;;;;7.17;4.07;;;;;;;19.61;100.00;98620.84;5072399;28;20237;-79
2023/06/16 00:27:35;;;;;;;6.33;4.10;;;;;;;19.57;100.00;98611.78;5072547;28;20199;-79
2023/06/16 00:30:03;;;;;;;6.70;4.03;;;;;;;19.55;100.00;98603.41;5072729;28;20299;-79
2023/06/16 00:32:30;;;;;;;6.30;3.90;;;;;;;19.57;100.00;98604.03;5072177;28;20202;-79
2023/06/16 00:34:57;;;;;;;6.43;4.00;;;;;;;19.58;100.00;98595.28;5073162;28;20225;-79
2023/06/16 00:37:24;;;;;;;11.07;4.53;;;;;;;19.58;100.00;98595.28;5071063;28;20225;-79
2023/06/16 00:39:50;;;;;;;8.67;4.73;;;;;;;19.58;100.00;98589.28;5072083;28;20203;-79
2023/06/16 00:42:17;;;;;;;7.43;4.50;;;;;;;19.55;100.00;98590.44;5072531;28;20211;-79
2023/06/16 00:44:45;;;;;;;10.00;4.87;;;;;;;19.55;100.00;98585.25;5072116;28;20240;-79
2023/06/16 00:47:12;;;;;;;8.10;4.70;;;;;;;19.51;100.00;98584.00;5072843;28;20206;-79
2023/06/16 00:49:40;;;;;;;7.83;4.50;;;;;;;19.50;100.00;98595.38;5072160;28;20206;-79
2023/06/16 00:52:10;;;;;;;12.37;5.10;;;;;;;19.48;100.00;98597.31;5071908;28;20197;-79
2023/06/16 00:54:37;;;;;;;11.13;4.97;;;;;;;19.48;100.00;98594.72;5072416;28;20209;-79
2023/06/16 00:57:06;;;;;;;10.97;5.00;;;;;;;19.47;100.00;98592.34;5072252;28;20218;-79
2023/06/16 00:59:34;;;;;;;9.00;4.73;;;;;;;19.49;100.00;98601.53;5071732;28;20285;-79
2023/06/16 01:02:02;;;;;;;9.37;4.67;;;;;;;19.51;100.00;98594.38;5072203;28;20656;-79
2023/06/16 01:04:29;;;;;;;7.30;4.40;;;;;;;19.50;100.00;98592.78;5071696;28;20228;-79
2023/06/16 01:07:09;;;;;;;8.90;4.70;;;;;;;19.51;100.00;98586.59;5071215;28;20234;-79
2023/06/16 01:09:45;;;;;;;12.07;4.67;;;;;;;19.53;100.00;98592.41;5071856;28;20213;-79
2023/06/16 01:12:20;;;;;;;8.37;4.80;;;;;;;19.54;100.00;98588.81;5071331;28;20230;-79
2023/06/16 01:14:58;;;;;;;9.20;4.80;;;;;;;19.55;100.00;98580.06;5071966;28;20204;-79
2023/06/16 01:17:29;;;;;;;8.40;4.67;;;;;;;19.53;100.00;98582.03;5071255;28;20257;-79
2023/06/16 01:20:07;;;;;;;8.33;4.67;;;;;;;19.50;100.00;98569.44;5071377;28;20709;-79
2023/06/16 01:22:53;;;;;;;10.23;4.60;;;;;;;19.53;100.00;98576.06;5071361;28;20206;-79
2023/06/16 01:25:23;;;;;;;6.87;4.30;;;;;;;19.48;100.00;98571.41;5071378;28;20252;-79
2023/06/16 01:27:52;;;;;;;7.10;4.10;;;;;;;19.49;100.00;98580.81;5071573;28;20210;-79
2023/06/16 01:30:22;;;;;;;13.27;4.67;;;;;;;19.50;100.00;98571.22;5071576;28;20249;-79
2023/06/16 01:32:53;;;;;;;8.83;5.00;;;;;;;19.47;100.00;98572.38;5071270;28;20193;-79
2023/06/16 01:35:21;;;;;;;8.23;4.73;;;;;;;19.45;100.00;98569.16;5071730;28;20257;-79
2023/06/16 01:37:50;;;;;;;8.63;4.80;;;;;;;19.41;100.00;98568.72;5071059;28;20222;-79
2023/06/16 01:40:19;;;;;;;7.23;4.43;;;;;;;19.43;100.00;98558.16;5070698;28;20225;-79
2023/06/16 01:42:48;;;;;;;10.60;5.43;;;;;;;19.43;100.00;98565.94;5070939;28;20579;-79
2023/06/16 01:45:16;;;;;;;7.07;4.53;;;;;;;19.41;100.00;98562.75;5070691;28;20235;-79
2023/06/16 01:47:44;;;;;;;8.97;4.20;;;;;;;19.37;100.00;98557.13;5071048;28;20209;-79
2023/06/16 01:50:11;;;;;;;10.17;4.50;;;;;;;19.37;100.00;98557.13;5070962;28;20259;-79
2023/06/16 01:52:39;;;;;;;9.73;4.93;;;;;;;19.38;100.00;98557.91;5070976;28;20280;-79
2023/06/16 01:55:07;;;;;;;9.80;4.87;;;;;;;19.41;100.00;98567.94;5071045;28;20321;-79
2023/06/16 01:57:34;;;;;;;8.93;4.53;;;;;;;19.41;100.00;98573.91;5071098;28;20207;-79
2023/06/16 02:00:05;;;;;;;8.13;4.53;;;;;;;19.43;100.00;98577.13;5071203;28;20299;-79
2023/06/16 02:02:33;;;;;;;7.70;4.20;;;;;;;19.42;100.00;98570.31;5070544;28;20265;-79
2023/06/16 02:05:03;;;;;;;7.40;4.33;;;;;;;19.42;100.00;98561.75;5070060;28;20227;-79
2023/06/16 02:07:41;;;;;;;9.30;4.53;;;;;;;19.42;100.00;98569.53;5070657;28;20201;-79
2023/06/16 02:10:09;;;;;;;11.20;4.87;;;;;;;19.41;100.00;98567.94;5071116;28;20228;-79
2023/06/16 02:12:37;;;;;;;9.60;4.70;;;;;;;19.39;100.00;98559.53;5070607;28;20216;-79
2023/06/16 02:15:06;;;;;;;7.33;4.50;;;;;;;19.40;100.00;98563.72;5070937;28;20222;-79
2023/06/16 02:17:33;;;;;;;7.77;4.77;;;;;;;19.39;100.00;98564.69;5070430;28;20301;-79
2023/06/16 02:20:00;;;;;;;8.13;4.30;;;;;;;19.40;100.00;98566.31;5070455;28;20244;-78
2023/06/16 02:22:27;;;;;;;9.80;5.00;;;;;;;19.37;100.00;98566.66;5069772;28;20208;-79
2023/06/16 02:24:54;;;;;;;9.23;4.03;;;;;;;19.35;100.00;98560.88;5070503;28;20241;-79
2023/06/16 02:27:21;;;;;;;9.87;4.73;;;;;;;19.36;100.00;98559.88;5071001;28;20241;-79
2023/06/16 02:29:48;;;;;;;9.27;4.37;;;;;;;19.38;100.00;98563.09;5070552;28;20674;-78
2023/06/16 02:32:16;;;;;;;9.87;5.00;;;;;;;19.36;100.00;98559.88;5070734;28;20725;-79
2023/06/16 02:34:44;;;;;;;9.17;4.23;;;;;;;19.34;100.00;98552.28;5070792;28;20278;-79
2023/06/16 02:37:12;;;;;;;9.47;5.23;;;;;;;19.35;100.00;98542.72;5070320;28;20211;-79
2023/06/16 02:39:39;;;;;;;9.10;4.53;;;;;;;19.34;100.00;98543.69;5070356;28;20217;-79
2023/06/16 02:42:07;;;;;;;8.83;5.37;;;;;;;19.31;100.00;98551.84;5070331;28;20201;-79
2023/06/16 02:44:34;;;;;;;10.50;6.10;;;;;;;19.30;100.00;98540.66;5070396;28;20320;-79
2023/06/16 02:47:01;;;;;;;10.27;5.77;;;;;;;19.27;100.00;98535.03;5070082;28;20220;-79
2023/06/16 02:49:30;;;;;;;9.63;5.50;;;;;;;19.30;100.00;98539.88;5070815;28;20685;-79
2023/06/16 02:51:57;;;;;;;8.20;4.70;;;;;;;19.28;100.00;98544.41;5070124;28;20226;-79
2023/06/16 02:54:25;;;;;;;10.20;4.93;;;;;;;19.21;100.00;98537.38;5070576;28;20750;-79
2023/06/16 02:56:51;;;;;;;10.50;4.73;;;;;;;19.21;100.00;98537.38;5070845;28;20226;-79
2023/06/16 02:59:18;;;;;;;8.17;4.20;;;;;;;19.23;100.00;98540.59;5070775;28;20198;-79
2023/06/16 03:01:45;;;;;;;8.17;4.60;;;;;;;19.21;100.00;98531.38;5074189;28;20295;-79
2023/06/16 03:04:12;;;;;;;7.83;4.53;;;;;;;19.23;100.00;98526.84;5073852;28;20221;-79
2023/06/16 03:06:44;;;;;;;7.77;4.20;;;;;;;19.25;100.00;98521.44;5074121;28;20224;-79
2023/06/16 03:09:12;;;;;;;6.73;4.33;;;;;;;19.28;100.00;98524.47;5074250;28;20635;-79
2023/06/16 03:11:39;;;;;;;6.53;4.03;;;;;;;19.31;100.00;98521.53;5073618;28;20226;-79
2023/06/16 03:14:06;;;;;;;8.93;4.73;;;;;;;19.35;100.00;98524.59;5073420;28;20204;-79
2023/06/16 03:16:32;;;;;;;12.40;4.70;;;;;;;19.36;100.00;98521.00;5074220;28;20223;-79
2023/06/16 03:18:59;;;;;;;6.53;4.10;;;;;;;19.35;100.00;98524.59;5074290;28;20201;-79
2023/06/16 03:21:27;;;;;;;8.73;4.83;;;;;;;19.35;100.00;98529.78;5074741;28;20302;-79
2023/06/16 03:23:55;;;;;;;6.83;4.37;;;;;;;19.38;100.00;98537.97;5073715;28;20598;-79
2023/06/16 03:26:22;;;;;;;11.20;4.33;;;;;;;19.39;100.00;98533.59;5073707;28;20290;-79
2023/06/16 03:28:49;;;;;;;6.83;4.43;;;;;;;19.35;100.00;98538.34;5073173;28;20243;-79
2023/06/16 03:31:17;;;;;;;6.93;4.33;;;;;;;19.36;100.00;98536.56;5073538;28;20788;-79
2023/06/16 03:33:44;;;;;;;11.47;4.77;;;;;;;19.37;100.00;98538.16;5073705;28;20203;-79
2023/06/16 03:36:11;;;;;;;6.30;3.87;;;;;;;19.37;100.00;98536.38;5073445;28;20318;-79
2023/06/16 03:38:38;;;;;;;5.97;3.80;;;;;;;19.39;100.00;98525.81;5073804;28;20238;-79
2023/06/16 03:41:06;;;;;;;13.77;4.67;;;;;;;19.44;100.00;98532.06;5073355;28;20231;-79
2023/06/16 03:43:33;;;;;;;11.73;5.03;;;;;;;19.45;100.00;98533.66;5073521;28;20198;-79
2023/06/16 03:46:00;;;;;;;12.10;5.10;;;;;;;19.47;100.00;98525.72;5073386;28;20239;-79
2023/06/16 03:48:27;;;;;;;10.97;4.60;;;;;;;19.44;100.00;98531.28;5073706;28;20210;-79
2023/06/16 03:50:54;;;;;;;9.90;4.60;;;;;;;19.47;100.00;98527.50;5073292;28;20376;-79
2023/06/16 03:53:21;;;;;;;12.37;4.83;;;;;;;19.49;100.00;98531.53;5072993;28;20199;-79
2023/06/16 03:55:48;;;;;;;8.77;5.00;;;;;;;19.48;100.00;98537.69;5073041;28;20234;-79
2023/06/16 03:58:16;;;;;;;10.70;5.20;;;;;;;19.49;100.00;98544.50;5073370;28;20236;-79
2023/06/16 04:00:44;;;;;;;11.47;5.40;;;;;;;19.51;100.00;98536.53;5073325;28;20225;-79
2023/06/16 04:03:11;;;;;;;9.10;5.07;;;;;;;19.52;100.00;98527.75;5072785;28;20199;-79
2023/06/16 04:05:38;;;;;;;9.43;4.97;;;;;;;19.54;100.00;98525.78;5072440;28;20240;-80
2023/06/16 04:08:06;;;;;;;11.63;5.47;;;;;;;19.53;100.00;98530.19;5072956;28;20201;-79
2023/06/16 04:10:33;;;;;;;8.70;4.80;;;;;;;19.56;100.00;98519.44;5072004;28;20279;-79
2023/06/16 04:13:00;;;;;;;15.97;5.83;;;;;;;19.61;100.00;98530.06;5072397;28;20208;-79
2023/06/16 04:15:28;;;;;;;11.37;5.87;;;;;;;19.63;100.00;98535.91;5072883;28;20446;-79
2023/06/16 04:17:55;;;;;;;13.40;5.90;;;;;;;19.62;100.00;98531.69;5072717;28;20210;-79
2023/06/16 04:20:22;;;;;;;12.07;5.87;;;;;;;19.62;100.00;98533.47;5072514;28;20559;-79
2023/06/16 04:22:49;;;;;;;13.90;5.90;;;;;;;19.68;100.00;98538.75;5072780;28;20208;-79
2023/06/16 04:25:17;;;;;;;11.80;5.97;;;;;;;19.76;100.00;98540.44;5071975;28;20297;-79
2023/06/16 04:27:46;;;;;;;13.93;6.37;;;;;;;19.80;100.00;98530.50;5072703;28;20213;-79
2023/06/16 04:30:13;;;;;;;11.23;6.40;;;;;;;19.84;100.00;98526.56;5072198;28;20235;-79
2023/06/16 04:32:44;;;;;;;14.07;6.67;;;;;;;19.89;100.00;98530.19;5072250;28;20271;-79
2023/06/16 04:35:11;;;;;;;13.27;6.53;;;;;;;19.98;100.00;98532.66;5072639;28;20776;-79
2023/06/16 04:37:38;;;;;;;10.40;6.37;;;;;;;20.05;100.00;98534.34;5072569;28;20201;-79
2023/06/16 04:40:08;;;;;;;11.57;6.60;;;;;;;20.13;100.00;98534.22;5072033;28;20437;-79
2023/06/16 04:42:34;;;;;;;11.53;5.40;;;;;;;20.17;100.00;98524.28;5071500;28;20206;-79
2023/06/16 04:45:02;;;;;;;10.53;6.23;;;;;;;20.26;100.00;98535.34;5072750;28;20232;-79
2023/06/16 04:47:28;;;;;;;11.33;5.83;;;;;;;20.31;100.00;98533.00;5072226;28;20205;-79
2023/06/16 04:49:57;;;;;;;11.17;5.70;;;;;;;20.30;100.00;98531.38;5072295;28;20202;-78
2023/06/16 04:52:24;;;;;;;12.17;6.27;;;;;;;20.42;100.00;98539.44;5072758;28;20262;-79
2023/06/16 04:54:51;;;;;;;9.67;6.13;;;;;;;20.47;100.00;98540.50;5072157;28;20213;-79
2023/06/16 04:57:18;;;;;;;9.90;6.20;;;;;;;20.59;100.00;98551.22;5072397;28;20209;-78
2023/06/16 04:59:45;;;;;;;10.97;6.70;;;;;;;20.69;100.00;98554.28;5072006;28;20286;-78
2023/06/16 05:02:12;;;;;;;10.17;5.67;;;;;;;20.76;100.00;98546.53;5072179;28;20257;-79
2023/06/16 05:04:43;;;;;;;12.93;7.23;;;;;;;20.79;100.00;98553.94;5072638;28;20210;-79
2023/06/16 05:07:12;;;;;;;17.73;9.20;;;;;;;20.85;100.00;98560.97;5072106;28;20213;-78
2023/06/16 05:09:39;;;;;;;14.15;7.80;;;;;;;20.88;100.00;98560.59;5071978;28;20206;-79
2023/06/16 05:12:07;;;;;;;13.70;7.10;;;;;;;20.94;100.00;98559.88;5072176;28;20317;-78
2023/06/16 05:14:34;;;;;;;11.17;6.23;;;;;;;20.91;100.00;98568.03;5071394;28;20248;-78
2023/06/16 05:17:01;;;;;;;11.93;6.32;;;;;;;20.90;100.00;98558.63;5072194;28;20347;-79
2023/06/16 05:19:30;;;;;;;14.50;6.50;;;;;;;20.98;100.00;98561.09;5071481;28;20598;-79
2023/06/16 05:21:56;;;;;;;11.48;6.18;;;;;;;20.97;100.00;98554.28;5071524;28;20225;-79
2023/06/16 05:24:25;;;;;;;13.73;6.70;;;;;;;20.99;100.00;98562.69;5071656;28;20577;-79
2023/06/16 05:26:52;;;;;;;11.63;6.13;;;;;;;20.96;100.00;98562.25;5071611;28;20243;-79
2023/06/16 05:29:18;;;;;;;13.80;6.67;;;;;;;20.90;100.00;98563.81;5071453;28;20211;-79
2023/06/16 05:31:45;;;;;;;10.52;6.40;;;;;;;20.90;100.00;98558.63;5071732;28;20223;-79
2023/06/16 05:34:12;;;;;;;10.10;6.30;;;;;;;20.95;100.00;98566.66;5072022;28;20199;-79
2023/06/16 05:36:40;;;;;;;10.43;6.30;;;;;;;20.98;100.00;98566.28;5071665;28;20233;-78
2023/06/16 05:39:08;;;;;;;10.05;6.10;;;;;;;21.08;100.00;98559.94;5071414;28;20194;-78
2023/06/16 05:57:38;;;;;;;17.83;7.10;;;;;;;21.51;100.00;98567.59;5127262;27;20544;-70
2023/06/16 06:00:07;;;;;;;16.33;6.53;;;;;;;21.59;100.00;98567.44;5127904;27;20204;-70
2023/06/16 06:02:33;;;;;;;12.45;6.93;;;;;;;21.60;100.00;98566.41;5127712;27;20201;-70
2023/06/16 06:05:00;;;;;;;15.48;8.65;;;;;;;21.57;100.00;98564.22;5127732;27;20200;-72
2023/06/16 06:07:27;;;;;;;14.90;8.50;;;;;;;21.52;100.00;98561.38;5127455;27;20217;-69
2023/06/16 06:09:54;;;;;;;15.20;8.20;;;;;;;21.48;100.00;98561.78;5127902;27;20659;-73
2023/06/16 06:12:22;;;;;;;17.67;8.15;;;;;;;21.45;100.00;98567.34;5127329;27;20209;-70
2023/06/16 06:14:50;;;;;;;16.10;9.55;;;;;;;21.38;100.00;98576.94;5127069;27;20197;-69
2023/06/16 06:17:17;;;;;;;14.20;8.55;;;;;;;21.32;100.00;98585.50;5126973;27;20301;-72
2023/06/16 06:19:44;;;;;;;14.75;8.43;;;;;;;21.27;100.00;98585.25;5127486;27;20211;-75
2023/06/16 06:22:10;;;;;;;16.73;8.65;;;;;;;21.17;100.00;98579.59;5127108;27;20262;-70
2023/06/16 06:24:38;;;;;;;17.25;9.13;;;;;;;21.10;100.00;98589.16;5127272;27;20205;-68
2023/06/16 06:27:05;;;;;;;16.80;9.33;;;;;;;21.07;100.00;98590.34;5127076;27;20296;-69
2023/06/16 06:29:32;;;;;;;14.97;8.57;;;;;;;21.00;100.00;98595.50;5127514;27;20204;-69
2023/06/16 06:32:00;;;;;;;15.07;8.48;;;;;;;21.02;100.00;98588.28;5127238;27;20584;-69
2023/06/16 06:34:27;;;;;;;16.53;8.67;;;;;;;21.07;100.00;98574.72;5127140;27;20204;-71
2023/06/16 06:36:54;;;;;;;17.27;8.55;;;;;;;21.10;100.00;98576.16;5127146;27;20289;-69
2023/06/16 06:39:21;;;;;;;13.45;7.97;;;;;;;21.20;100.00;98579.19;5127320;27;20193;-71
2023/06/16 06:41:48;;;;;;;15.15;8.52;;;;;;;21.24;100.00;98575.25;5127057;27;20209;-71
2023/06/16 06:44:15;;;;;;;15.55;9.35;;;;;;;21.33;100.00;98571.47;5127502;27;20562;-71
2023/06/16 06:46:42;;;;;;;20.15;9.60;;;;;;;21.38;100.00;98578.72;5126819;27;20236;-70
2023/06/16 06:49:10;;;;;;;16.73;8.77;;;;;;;21.46;100.00;98579.34;5126847;27;20205;-71
2023/06/16 06:51:37;;;;;;;16.38;9.40;;;;;;;21.56;100.00;98575.63;5127046;27;20232;-70
2023/06/16 06:54:04;;;;;;;21.77;12.05;;;;;;;21.60;100.00;98572.41;5127051;27;20680;-73
2023/06/16 06:56:31;;;;;;;19.42;9.75;;;;;;;21.64;100.00;98570.22;5124157;27;20220;-73
2023/06/16 06:58:57;;;;;;;19.13;9.77;;;;;;;21.68;100.00;98572.25;5113146;28;20665;-73
2023/06/16 07:01:24;;;;;;;19.52;9.15;;;;;;;21.74;100.00;98567.28;5112791;28;20221;-70
2023/06/16 07:03:51;;;;;;;15.82;9.23;;;;;;;21.79;100.00;98568.28;5112759;28;20193;-73
2023/06/16 07:06:19;;;;;;;18.00;9.75;;;;;;;21.84;100.00;98565.88;5112748;27;20700;-73
2023/06/16 07:08:46;;;;;;;15.50;9.32;;;;;;;21.92;100.00;98568.31;5112969;28;20201;-73
2023/06/16 07:11:12;;;;;;;16.23;9.05;;;;;;;21.90;100.00;98566.91;5112985;28;20217;-70
2023/06/16 07:13:39;;;;;;;16.05;9.32;;;;;;;21.93;100.00;98569.13;5112684;28;20197;-69
2023/06/16 07:16:06;;;;;;;14.45;9.38;;;;;;;21.96;100.00;98562.72;5112956;28;20307;-69
2023/06/16 07:18:33;;;;;;;17.48;9.32;;;;;;;22.04;100.00;98567.75;5113076;28;20270;-69
2023/06/16 07:20:59;;;;;;;17.15;9.52;;;;;;;22.11;100.00;98560.75;5110949;28;20232;-72
2023/06/16 07:23:28;;;;;;;16.25;9.25;;;;;;;22.20;100.00;98559.59;5110561;28;20202;-73
2023/06/16 07:25:55;;;;;;;16.90;9.27;;;;;;;22.25;100.00;98565.03;5112145;28;20634;-73
2023/06/16 07:28:21;;;;;;;16.50;9.43;;;;;;;22.23;100.00;98569.63;5112316;28;20194;-69
2023/06/16 07:30:48;;;;;;;16.15;9.23;;;;;;;22.22;100.00;98575.81;5112975;28;20723;-70
2023/06/16 07:33:15;;;;;;;15.13;8.85;;;;;;;22.31;100.00;98577.25;5112409;28;20199;-69
2023/06/16 07:35:42;;;;;;;15.13;9.02;;;;;;;22.28;100.00;98576.81;5112256;28;20231;-69
2023/06/16 07:38:09;;;;;;;20.67;10.35;;;;;;;22.28;100.00;98577.66;5112445;28;20204;-73
2023/06/16 07:40:37;;;;;;;15.10;9.13;;;;;;;22.49;100.00;98573.25;5112688;28;20217;-73
2023/06/16 07:43:04;;;;;;;15.00;8.98;;;;;;;22.71;100.00;98577.22;5113311;28;20200;-72
2023/06/16 07:45:33;;;;;;;17.25;9.48;;;;;;;23.05;100.00;98572.81;5112498;28;20221;-72
2023/06/16 07:47:59;;;;;;;16.40;9.02;;;;;;;23.25;100.00;98573.56;5112172;28;20426;-73
2023/06/16 07:50:26;;;;;;;16.13;9.73;;;;;;;23.57;100.00;98576.28;5112011;28;20699;-72
2023/06/16 07:52:53;;;;;;;16.05;9.35;;;;;;;23.91;100.00;98582.16;5112330;28;20217;-69
2023/06/16 07:55:20;;;;;;;14.90;9.18;;;;;;;24.15;100.00;98586.66;5112033;28;20600;-71
2023/06/16 07:57:48;;;;;;;14.50;9.25;;;;;;;24.14;100.00;98592.91;5111832;28;20254;-70
2023/06/16 08:00:18;;;;;;;14.85;8.85;;;;;;;24.18;100.00;98591.44;5111666;28;20251;-72
2023/06/16 08:02:46;;;;;;;14.60;8.30;;;;;;;24.10;100.00;98596.91;5111945;28;20213;-72
2023/06/16 08:05:16;;;;;;;14.00;8.63;;;;;;;24.09;100.00;98597.16;5111964;28;20197;-70
2023/06/16 08:07:43;;;;;;;13.07;8.07;;;;;;;23.91;100.00;98598.66;5111523;28;20229;-69
2023/06/16 08:10:11;;;;;;;14.50;8.80;;;;;;;23.90;100.00;98601.44;5110692;27;20205;-72
2023/06/16 08:12:38;;;;;;;15.15;8.85;;;;;;;23.98;100.00;98597.81;5111686;28;20209;-72
2023/06/16 08:15:08;;;;;;;13.35;8.82;;;;;;;24.10;100.00;98591.69;5111777;28;20574;-70
2023/06/16 08:17:36;;;;;;;11.77;7.90;;;;;;;24.15;100.00;98594.47;5111349;28;20205;-71
2023/06/16 08:20:04;;;;;;;14.35;8.45;;;;;;;24.12;100.00;98588.88;5111611;28;20201;-70
2023/06/16 08:22:31;;;;;;;12.20;8.55;;;;;;;24.25;100.00;98594.00;5111555;28;20617;-72
2023/06/16 08:24:58;;;;;;;13.27;8.90;;;;;;;24.40;100.00;98585.88;5111322;28;20209;-73
2023/06/16 08:27:25;;;;;;;14.52;9.05;;;;;;;24.39;100.00;98599.94;5111108;28;20229;-73
2023/06/16 08:29:52;;;;;;;12.20;8.52;;;;;;;24.59;100.00;98598.03;5111453;28;20201;-71
2023/06/16 08:32:20;;;;;;;12.13;8.52;;;;;;;24.71;100.00;98592.91;5111164;28;20300;-73
2023/06/16 08:34:47;;;;;;;12.05;7.75;;;;;;;24.86;100.00;98600.41;5111394;28;20665;-73
2023/06/16 08:37:13;;;;;;;12.73;8.40;;;;;;;24.95;100.00;98603.53;5110945;28;20213;-70
2023/06/16 08:39:42;;;;;;;13.80;9.00;;;;;;;25.04;100.00;98603.03;5111106;28;20266;-70
2023/06/16 08:42:10;;;;;;;12.07;8.48;;;;;;;25.14;100.00;98602.59;5111460;28;20224;-69
2023/06/16 08:44:39;;;;;;;12.52;7.97;;;;;;;25.27;100.00;98607.66;5111118;28;20216;-69
2023/06/16 08:47:08;;;;;;;10.68;7.43;;;;;;;25.32;100.00;98593.16;5111247;28;20233;-72
2023/06/16 08:49:39;;;;;;;11.05;7.43;;;;;;;25.36;100.00;98595.09;5111102;28;20200;-72
2023/06/16 08:52:09;;;;;;;10.77;7.03;;;;;;;25.41;100.00;98592.63;5111088;28;20780;-70
2023/06/16 08:54:46;;;;;;;13.40;7.97;;;;;;;25.34;100.00;98589.31;5110878;28;20284;-72
2023/06/16 08:57:15;;;;;;;12.38;7.78;;;;;;;25.52;100.00;98589.28;5110798;28;20223;-72
2023/06/16 08:59:45;;;;;;;13.48;8.40;;;;;;;25.55;100.00;98595.09;5110511;28;20629;-72
2023/06/16 09:02:12;;;;;;;12.15;8.27;;;;;;;25.83;100.00;98584.91;5110579;28;20221;-72
2023/06/16 09:04:41;;;;;;;11.50;8.07;;;;;;;26.00;100.00;98592.13;5110738;28;20201;-70
2023/06/16 09:07:09;;;;;;;11.00;7.85;;;;;;;25.95;100.00;98582.34;5110453;28;20233;-69
2023/06/16 09:09:35;;;;;;;12.98;8.18;;;;;;;26.33;100.00;98589.84;5110819;28;20224;-72
2023/06/16 09:12:08;;;;;;;11.77;8.00;;;;;;;26.61;100.00;98585.78;5110598;28;20700;-74
2023/06/16 09:14:37;;;;;;;10.90;7.95;;;;;;;26.68;96.39;98586.50;5111212;28;20341;-72
2023/06/16 09:17:05;;;;;;;10.82;7.65;;;;;;;26.72;98.77;98586.84;5110604;28;20224;-70
2023/06/16 09:19:34;;;;;;;11.70;8.55;;;;;;;26.81;96.95;98581.00;5110527;28;20716;-70
2023/06/16 09:22:03;;;;;;;11.90;7.72;;;;;;;26.74;93.09;98580.34;5110389;28;20222;-69
2023/06/16 09:24:30;;;;;;;11.73;8.18;;;;;;;27.10;99.47;98573.22;5110550;28;20199;-69
2023/06/16 09:26:59;;;;;;;14.38;8.77;;;;;;;27.39;99.93;98574.13;5110423;28;20240;-72
2023/06/16 09:29:28;;;;;;;10.75;7.65;;;;;;;27.87;98.33;98564.28;5110205;28;20201;-69
2023/06/16 09:32:06;;;;;;;11.30;8.50;;;;;;;27.95;98.02;98571.75;5110276;28;20214;-72
2023/06/16 09:34:33;;;;;;;11.45;7.93;;;;;;;28.05;93.68;98569.31;5110495;28;20574;-72
2023/06/16 09:37:01;;;;;;;12.52;8.93;;;;;;;27.79;91.26;98575.16;5110404;28;20240;-72
2023/06/16 09:39:28;;;;;;;13.15;8.80;;;;;;;28.13;93.59;98565.47;5110425;28;20205;-69
2023/06/16 09:41:56;;;;;;;11.05;8.50;;;;;;;28.47;91.69;98566.34;5110142;28;20221;-69
2023/06/16 09:44:24;;;;;;;10.85;8.20;;;;;;;28.70;88.93;98567.19;5110028;28;20220;-69
2023/06/16 09:46:51;;;;;;;11.30;7.95;;;;;;;28.45;82.94;98576.31;5110012;28;20617;-70
2023/06/16 09:49:22;;;;;;;11.48;7.65;;;;;;;28.31;84.71;98572.38;5110022;28;20197;-72
2023/06/16 09:51:53;;;;;;;12.30;7.47;;;;;;;28.25;84.63;98565.44;5109897;28;20221;-72
2023/06/16 09:54:22;;;;;;;10.75;7.20;;;;;;;28.30;85.21;98565.50;5109861;28;20209;-69
2023/06/16 09:56:49;;;;;;;11.02;7.38;;;;;;;28.33;86.67;98557.97;5110217;28;20232;-70
2023/06/16 09:59:16;;;;;;;9.85;7.15;;;;;;;28.51;90.83;98556.13;5109895;28;20212;-72
2023/06/16 10:01:45;;;;;;;8.32;6.07;;;;;;;28.60;85.96;98559.97;5109723;28;20221;-70
2023/06/16 10:04:13;;;;;;;8.30;6.20;;;;;;;28.59;84.74;98553.88;5109991;28;20236;-72
2023/06/16 10:06:48;;;;;;;9.43;6.57;;;;;;;28.76;83.58;98550.44;5109838;28;20233;-69
2023/06/16 10:09:18;;;;;;;8.43;6.03;;;;;;;28.92;85.91;98546.19;5109989;28;20557;-70
2023/06/16 10:11:48;;;;;;;7.38;5.63;;;;;;;28.82;78.99;98546.84;5110192;28;20266;-72
2023/06/16 10:14:18;;;;;;;9.45;5.22;;;;;;;29.05;81.33;98541.38;5110099;28;20189;-69
2023/06/16 10:16:50;;;;;;;7.53;5.70;;;;;;;29.38;81.58;98534.41;5110057;28;20225;-72
2023/06/16 10:19:20;;;;;;;8.68;5.53;;;;;;;29.63;75.86;98535.75;5109953;28;20665;-70
2023/06/16 10:21:50;;;;;;;9.55;5.13;;;;;;;29.84;82.14;98532.25;5109642;28;20278;-69
2023/06/16 10:24:17;;;;;;;6.85;5.18;;;;;;;29.90;81.77;98528.59;5109788;28;20258;-72
2023/06/16 10:26:45;;;;;;;6.78;4.85;;;;;;;30.10;76.59;98541.16;5109899;28;20282;-73
2023/06/16 10:29:16;;;;;;;9.10;5.20;;;;;;;30.26;80.27;98534.22;5109979;28;20201;-69
2023/06/16 10:31:45;;;;;;;6.22;4.47;;;;;;;30.23;68.76;98534.72;5109826;28;20210;-70
2023/06/16 10:34:20;;;;;;;5.15;4.30;;;;;;;30.34;66.22;98536.38;5113643;28;20194;-70
2023/06/16 10:36:51;;;;;;;4.68;3.83;;;;;;;29.98;69.74;98528.16;5113932;28;20270;-70
2023/06/16 10:39:18;;;;;;;3.88;3.42;;;;;;;29.86;73.29;98524.88;5113572;28;20635;-70
2023/06/16 10:41:54;;;;;;;4.90;3.85;;;;;;;30.12;73.14;98525.91;5113636;28;20214;-72
2023/06/16 10:44:30;;;;;;;4.18;3.53;;;;;;;30.28;65.08;98529.47;5113199;28;20753;-72
2023/06/16 10:47:29;;;;;;;5.63;3.70;;;;;;;30.42;67.46;98527.97;5113096;27;20232;-69
2023/06/16 10:49:58;;;;;;;3.40;3.03;;;;;;;30.56;65.68;98528.34;5090253;28;20209;-72
2023/06/16 10:52:52;;;;;;;5.43;3.60;;;;;;;30.65;70.69;98526.00;5113149;28;20677;-69
2023/06/16 10:55:35;;;;;;;4.40;3.40;;;;;;;30.57;61.53;98523.84;5113317;28;20583;-70
2023/06/16 10:58:23;;;;;;;3.78;3.10;;;;;;;30.82;69.43;98510.81;5112527;28;20633;-73
2023/06/16 11:01:06;;;;;;;4.93;3.03;;;;;;;30.88;68.34;98512.44;5112986;28;20298;-70
2023/06/16 11:03:36;;;;;;;3.70;3.25;;;;;;;30.98;63.07;98513.53;5113165;27;20193;-70
2023/06/16 11:06:04;;;;;;;6.13;3.20;;;;;;;30.99;64.16;98510.63;5113029;28;20221;-70
2023/06/16 11:08:31;;;;;;;4.03;3.08;;;;;;;31.15;67.48;98506.19;5113049;28;20609;-70
2023/06/16 11:11:06;;;;;;;5.82;3.17;;;;;;;31.15;63.06;98503.56;5113186;28;20229;-70
2023/06/16 11:13:38;;;;;;;3.75;3.00;;;;;;;30.75;61.80;98499.69;5112867;28;20216;-73
2023/06/16 11:16:07;;;;;;;4.35;3.00;;;;;;;30.60;60.80;98496.94;5113388;28;20716;-70
2023/06/16 11:18:35;;;;;;;3.85;2.70;;;;;;;30.80;66.08;98497.09;5112684;28;20189;-69
2023/06/16 11:21:03;;;;;;;3.53;3.00;;;;;;;30.51;60.20;98503.75;5112671;28;20782;-71
2023/06/16 11:23:31;;;;;;;5.43;2.70;;;;;;;30.64;64.20;98490.13;5112654;28;20190;-72
2023/06/16 11:26:04;;;;;;;4.38;2.67;;;;;;;30.48;59.45;98489.25;5112740;28;20213;-70
2023/06/16 11:28:33;;;;;;;3.95;2.55;;;;;;;30.77;56.79;98492.28;5112545;28;20229;-72
2023/06/16 11:31:01;;;;;;;3.22;2.60;;;;;;;30.58;56.90;98493.78;5112474;28;20301;-72
2023/06/16 11:33:32;;;;;;;3.15;2.55;;;;;;;30.61;56.01;98482.72;5112386;28;20250;-70
2023/06/16 11:36:14;;;;;;;3.38;2.55;;;;;;;30.65;59.66;98478.50;5112599;28;20222;-70
2023/06/16 11:38:43;;;;;;;3.47;2.45;;;;;;;30.73;59.78;98474.59;5112275;28;20223;-69
2023/06/16 11:41:15;;;;;;;2.70;2.35;;;;;;;30.73;59.36;98475.41;5111818;28;20225;-69
2023/06/16 11:43:42;;;;;;;3.40;2.45;;;;;;;30.90;57.41;98473.38;5112130;28;20243;-69